sensor_id;sensor_type;location;lat;lon;timestamp;pressure;altitude;pressure_sealevel;temperature;humidity
39715;BME280;54166;53.172;-6.552;2023-04-07T00:00:15;99603.41;;;16.36;36.81
39715;BME280;54166;53.172;-6.552;2023-04-07T00:02:42;99603.20;;;16.36;36.86
39715;BME280;54166;53.172;-6.552;2023-04-07T00:05:10;99602.41;;;16.74;36.87
39715;BME280;54166;53.172;-6.552;2023-04-07T00:07:38;99602.02;;;17.08;36.83
39715;BME280;54166;53.172;-6.552;2023-04-07T00:10:07;99598.89;;;16.33;36.79
39715;BME280;54166;53.172;-6.552;2023-04-07T00:12:35;99596.22;;;16.32;36.84
39715;BME280;54166;53.172;-6.552;2023-04-07T00:15:03;99596.56;;;16.72;36.82
39715;BME280;54166;53.172;-6.552;2023-04-07T00:17:30;99593.54;;;17.04;36.75
39715;BME280;54166;53.172;-6.552;2023-04-07T00:19:58;99593.75;;;16.31;36.80
39715;BME280;54166;53.172;-6.552;2023-04-07T00:22:26;99593.80;;;16.70;36.74
39715;BME280;54166;53.172;-6.552;2023-04-07T00:24:54;99595.74;;;16.29;36.61
39715;BME280;54166;53.172;-6.552;2023-04-07T00:27:22;99598.96;;;16.69;36.59
39715;BME280;54166;53.172;-6.552;2023-04-07T00:29:49;99598.85;;;16.68;36.57
39715;BME280;54166;53.172;-6.552;2023-04-07T00:32:17;99597.01;;;16.26;36.53
39715;BME280;54166;53.172;-6.552;2023-04-07T00:34:45;99595.80;;;16.27;36.59
39715;BME280;54166;53.172;-6.552;2023-04-07T00:37:13;99592.58;;;16.25;36.71
39715;BME280;54166;53.172;-6.552;2023-04-07T00:39:41;99588.97;;;16.23;36.95
39715;BME280;54166;53.172;-6.552;2023-04-07T00:42:08;99585.60;;;16.22;37.02
39715;BME280;54166;53.172;-6.552;2023-04-07T00:44:36;99583.25;;;16.61;36.99
39715;BME280;54166;53.172;-6.552;2023-04-07T00:47:04;99585.35;;;16.60;37.08
39715;BME280;54166;53.172;-6.552;2023-04-07T00:49:32;99584.71;;;16.94;37.07
39715;BME280;54166;53.172;-6.552;2023-04-07T00:52:01;99585.24;;;16.60;37.04
39715;BME280;54166;53.172;-6.552;2023-04-07T00:54:30;99587.24;;;16.19;37.08
39715;BME280;54166;53.172;-6.552;2023-04-07T00:56:59;99586.52;;;16.57;37.00
39715;BME280;54166;53.172;-6.552;2023-04-07T00:59:28;99583.63;;;16.15;36.99
39715;BME280;54166;53.172;-6.552;2023-04-07T01:02:04;99585.12;;;16.14;36.98
39715;BME280;54166;53.172;-6.552;2023-04-07T01:04:45;99582.69;;;16.10;37.01
39715;BME280;54166;53.172;-6.552;2023-04-07T01:07:21;99580.29;;;16.47;37.04
39715;BME280;54166;53.172;-6.552;2023-04-07T01:09:56;99580.55;;;16.08;37.07
39715;BME280;54166;53.172;-6.552;2023-04-07T01:12:31;99579.73;;;16.46;36.96
39715;BME280;54166;53.172;-6.552;2023-04-07T01:15:08;99579.03;;;16.44;36.74
39715;BME280;54166;53.172;-6.552;2023-04-07T01:17:38;99576.67;;;16.43;36.68
39715;BME280;54166;53.172;-6.552;2023-04-07T01:20:13;99575.44;;;16.43;36.68
39715;BME280;54166;53.172;-6.552;2023-04-07T01:22:46;99573.93;;;16.43;36.77
39715;BME280;54166;53.172;-6.552;2023-04-07T01:25:29;99574.14;;;16.42;36.66
39715;BME280;54166;53.172;-6.552;2023-04-07T01:28:14;99571.96;;;16.39;36.60
39715;BME280;54166;53.172;-6.552;2023-04-07T01:30:52;99570.04;;;16.67;36.55
39715;BME280;54166;53.172;-6.552;2023-04-07T01:33:24;99569.09;;;16.67;36.41
39715;BME280;54166;53.172;-6.552;2023-04-07T01:35:55;99568.84;;;16.34;36.30
39715;BME280;54166;53.172;-6.552;2023-04-07T01:38:27;99564.81;;;16.66;36.17
39715;BME280;54166;53.172;-6.552;2023-04-07T01:40:56;99564.27;;;16.65;36.21
39715;BME280;54166;53.172;-6.552;2023-04-07T01:43:25;99566.72;;;16.64;36.18
39715;BME280;54166;53.172;-6.552;2023-04-07T01:45:54;99568.48;;;16.30;36.02
39715;BME280;54166;53.172;-6.552;2023-04-07T01:48:28;99563.67;;;16.61;36.08
39715;BME280;54166;53.172;-6.552;2023-04-07T01:50:57;99560.37;;;16.24;36.07
39715;BME280;54166;53.172;-6.552;2023-04-07T01:53:26;99559.86;;;16.57;36.10
39715;BME280;54166;53.172;-6.552;2023-04-07T01:55:54;99562.10;;;16.56;35.99
39715;BME280;54166;53.172;-6.552;2023-04-07T01:58:22;99559.97;;;16.20;36.05
39715;BME280;54166;53.172;-6.552;2023-04-07T02:00:55;99559.57;;;16.54;36.01
39715;BME280;54166;53.172;-6.552;2023-04-07T02:03:28;99557.85;;;16.19;36.07
39715;BME280;54166;53.172;-6.552;2023-04-07T02:06:05;99557.67;;;16.49;35.96
39715;BME280;54166;53.172;-6.552;2023-04-07T02:08:43;99560.23;;;16.48;35.91
39715;BME280;54166;53.172;-6.552;2023-04-07T02:11:16;99559.66;;;16.45;35.88
39715;BME280;54166;53.172;-6.552;2023-04-07T02:13:45;99557.66;;;16.12;35.88
39715;BME280;54166;53.172;-6.552;2023-04-07T02:16:15;99553.95;;;15.72;35.92
39715;BME280;54166;53.172;-6.552;2023-04-07T02:18:45;99554.65;;;16.12;35.89
39715;BME280;54166;53.172;-6.552;2023-04-07T02:21:15;99552.55;;;16.44;35.85
39715;BME280;54166;53.172;-6.552;2023-04-07T02:23:43;99550.53;;;16.10;35.85
39715;BME280;54166;53.172;-6.552;2023-04-07T02:26:11;99550.46;;;16.10;35.73
39715;BME280;54166;53.172;-6.552;2023-04-07T02:28:39;99549.45;;;16.42;35.71
39715;BME280;54166;53.172;-6.552;2023-04-07T02:31:07;99548.80;;;16.40;35.68
39715;BME280;54166;53.172;-6.552;2023-04-07T02:33:35;99551.65;;;16.40;35.65
39715;BME280;54166;53.172;-6.552;2023-04-07T02:36:03;99550.93;;;16.05;35.59
39715;BME280;54166;53.172;-6.552;2023-04-07T02:38:31;99549.51;;;16.36;35.60
39715;BME280;54166;53.172;-6.552;2023-04-07T02:40:58;99547.77;;;16.35;35.62
39715;BME280;54166;53.172;-6.552;2023-04-07T02:43:26;99547.74;;;16.34;35.59
39715;BME280;54166;53.172;-6.552;2023-04-07T02:45:54;99547.43;;;16.33;35.62
39715;BME280;54166;53.172;-6.552;2023-04-07T02:48:22;99544.64;;;15.58;35.56
39715;BME280;54166;53.172;-6.552;2023-04-07T02:50:50;99543.91;;;16.30;35.64
39715;BME280;54166;53.172;-6.552;2023-04-07T02:53:18;99540.32;;;16.29;35.54
39715;BME280;54166;53.172;-6.552;2023-04-07T02:55:46;99539.33;;;16.27;35.46
39715;BME280;54166;53.172;-6.552;2023-04-07T02:58:14;99540.25;;;15.93;35.40
39715;BME280;54166;53.172;-6.552;2023-04-07T03:00:43;99539.17;;;16.25;35.46
39715;BME280;54166;53.172;-6.552;2023-04-07T03:03:11;99538.26;;;15.91;35.47
39715;BME280;54166;53.172;-6.552;2023-04-07T03:05:39;99534.46;;;15.90;35.50
39715;BME280;54166;53.172;-6.552;2023-04-07T03:08:07;99531.28;;;16.22;35.41
39715;BME280;54166;53.172;-6.552;2023-04-07T03:10:35;99531.35;;;16.21;35.48
39715;BME280;54166;53.172;-6.552;2023-04-07T03:13:03;99533.35;;;15.86;35.52
39715;BME280;54166;53.172;-6.552;2023-04-07T03:15:30;99534.46;;;16.19;35.57
39715;BME280;54166;53.172;-6.552;2023-04-07T03:18:03;99536.55;;;15.83;35.50
39715;BME280;54166;53.172;-6.552;2023-04-07T03:20:31;99538.51;;;15.81;35.52
39715;BME280;54166;53.172;-6.552;2023-04-07T03:22:59;99539.61;;;16.15;35.39
39715;BME280;54166;53.172;-6.552;2023-04-07T03:25:28;99539.25;;;16.14;35.43
39715;BME280;54166;53.172;-6.552;2023-04-07T03:27:56;99539.33;;;16.13;35.42
39715;BME280;54166;53.172;-6.552;2023-04-07T03:30:24;99539.22;;;16.13;35.41
39715;BME280;54166;53.172;-6.552;2023-04-07T03:32:52;99538.03;;;15.79;35.35
39715;BME280;54166;53.172;-6.552;2023-04-07T03:35:20;99540.41;;;16.11;35.45
39715;BME280;54166;53.172;-6.552;2023-04-07T03:37:48;99538.57;;;15.76;35.41
39715;BME280;54166;53.172;-6.552;2023-04-07T03:40:16;99540.45;;;16.10;35.42
39715;BME280;54166;53.172;-6.552;2023-04-07T03:42:45;99544.28;;;16.08;35.37
39715;BME280;54166;53.172;-6.552;2023-04-07T03:45:13;99544.46;;;16.07;35.39
39715;BME280;54166;53.172;-6.552;2023-04-07T03:47:41;99543.47;;;15.72;35.44
39715;BME280;54166;53.172;-6.552;2023-04-07T03:50:09;99535.35;;;16.05;35.31
39715;BME280;54166;53.172;-6.552;2023-04-07T03:52:37;99535.43;;;16.04;35.24
39715;BME280;54166;53.172;-6.552;2023-04-07T03:55:06;99538.79;;;15.69;35.24
39715;BME280;54166;53.172;-6.552;2023-04-07T03:57:34;99542.09;;;15.68;35.25
39715;BME280;54166;53.172;-6.552;2023-04-07T04:00:03;99544.32;;;16.00;35.21
39715;BME280;54166;53.172;-6.552;2023-04-07T04:02:31;99543.83;;;15.67;35.21
39715;BME280;54166;53.172;-6.552;2023-04-07T04:04:59;99546.17;;;15.97;35.24
39715;BME280;54166;53.172;-6.552;2023-04-07T04:07:27;99546.46;;;15.63;35.16
39715;BME280;54166;53.172;-6.552;2023-04-07T04:09:55;99545.38;;;15.97;35.17
39715;BME280;54166;53.172;-6.552;2023-04-07T04:12:23;99540.99;;;15.95;35.19
39715;BME280;54166;53.172;-6.552;2023-04-07T04:14:50;99540.97;;;15.96;35.17
39715;BME280;54166;53.172;-6.552;2023-04-07T04:17:18;99543.53;;;15.93;35.10
39715;BME280;54166;53.172;-6.552;2023-04-07T04:19:46;99540.57;;;15.56;35.10
39715;BME280;54166;53.172;-6.552;2023-04-07T04:22:14;99541.97;;;15.88;35.03
39715;BME280;54166;53.172;-6.552;2023-04-07T04:24:42;99540.17;;;15.88;35.01
39715;BME280;54166;53.172;-6.552;2023-04-07T04:27:10;99541.36;;;15.87;34.98
39715;BME280;54166;53.172;-6.552;2023-04-07T04:29:38;99542.54;;;15.85;34.96
39715;BME280;54166;53.172;-6.552;2023-04-07T04:32:06;99541.19;;;15.83;34.92
39715;BME280;54166;53.172;-6.552;2023-04-07T04:34:34;99540.96;;;15.82;34.90
39715;BME280;54166;53.172;-6.552;2023-04-07T04:37:02;99541.41;;;15.85;34.80
39715;BME280;54166;53.172;-6.552;2023-04-07T04:39:30;99540.39;;;15.84;34.83
39715;BME280;54166;53.172;-6.552;2023-04-07T04:41:57;99538.38;;;16.17;34.85
39715;BME280;54166;53.172;-6.552;2023-04-07T04:44:25;99538.35;;;15.83;34.82
39715;BME280;54166;53.172;-6.552;2023-04-07T04:46:53;99540.41;;;15.82;34.77
39715;BME280;54166;53.172;-6.552;2023-04-07T04:49:21;99544.79;;;15.79;34.83
39715;BME280;54166;53.172;-6.552;2023-04-07T04:53:26;99544.44;;;16.96;34.97
39715;BME280;54166;53.172;-6.552;2023-04-07T04:55:53;99545.28;;;15.59;34.94
39715;BME280;54166;53.172;-6.552;2023-04-07T04:58:21;99546.37;;;15.98;34.84
39715;BME280;54166;53.172;-6.552;2023-04-07T05:00:49;99543.80;;;15.68;34.76
39715;BME280;54166;53.172;-6.552;2023-04-07T05:03:19;99545.44;;;15.67;34.80
39715;BME280;54166;53.172;-6.552;2023-04-07T05:05:47;99544.30;;;16.01;34.72
39715;BME280;54166;53.172;-6.552;2023-04-07T05:08:15;99543.32;;;15.67;34.73
39715;BME280;54166;53.172;-6.552;2023-04-07T05:10:43;99544.48;;;15.69;34.63
39715;BME280;54166;53.172;-6.552;2023-04-07T05:13:11;99544.76;;;15.69;34.66
39715;BME280;54166;53.172;-6.552;2023-04-07T05:15:40;99542.69;;;15.69;34.64
39715;BME280;54166;53.172;-6.552;2023-04-07T05:18:08;99539.38;;;15.65;34.62
39715;BME280;54166;53.172;-6.552;2023-04-07T05:20:36;99543.39;;;15.97;34.64
39715;BME280;54166;53.172;-6.552;2023-04-07T05:23:04;99543.28;;;15.97;34.61
39715;BME280;54166;53.172;-6.552;2023-04-07T05:25:33;99545.15;;;15.64;34.62
39715;BME280;54166;53.172;-6.552;2023-04-07T05:28:00;99546.63;;;15.67;34.54
39715;BME280;54166;53.172;-6.552;2023-04-07T05:30:28;99543.33;;;15.64;34.59
39715;BME280;54166;53.172;-6.552;2023-04-07T05:32:56;99545.01;;;15.60;34.59
39715;BME280;54166;53.172;-6.552;2023-04-07T05:35:24;99545.66;;;15.91;34.53
39715;BME280;54166;53.172;-6.552;2023-04-07T05:37:52;99544.64;;;15.57;34.57
39715;BME280;54166;53.172;-6.552;2023-04-07T05:40:20;99542.23;;;15.56;34.54
39715;BME280;54166;53.172;-6.552;2023-04-07T05:42:47;99544.56;;;15.54;34.53
39715;BME280;54166;53.172;-6.552;2023-04-07T05:45:15;99546.23;;;15.86;34.49
39715;BME280;54166;53.172;-6.552;2023-04-07T05:47:43;99547.25;;;15.85;34.50
39715;BME280;54166;53.172;-6.552;2023-04-07T05:50:11;99548.31;;;15.52;34.51
39715;BME280;54166;53.172;-6.552;2023-04-07T05:52:39;99548.28;;;15.51;34.55
39715;BME280;54166;53.172;-6.552;2023-04-07T05:55:08;99549.62;;;15.50;34.50
39715;BME280;54166;53.172;-6.552;2023-04-07T05:57:36;99554.90;;;15.47;34.53
39715;BME280;54166;53.172;-6.552;2023-04-07T06:00:06;99555.13;;;15.47;34.55
39715;BME280;54166;53.172;-6.552;2023-04-07T06:02:34;99553.68;;;15.45;34.48
39715;BME280;54166;53.172;-6.552;2023-04-07T06:05:02;99553.53;;;15.45;34.51
39715;BME280;54166;53.172;-6.552;2023-04-07T06:07:30;99555.64;;;15.45;34.51
39715;BME280;54166;53.172;-6.552;2023-04-07T06:09:59;99555.10;;;15.45;34.49
39715;BME280;54166;53.172;-6.552;2023-04-07T06:12:26;99552.35;;;15.42;34.47
39715;BME280;54166;53.172;-6.552;2023-04-07T06:14:55;99552.04;;;15.75;34.49
39715;BME280;54166;53.172;-6.552;2023-04-07T06:17:23;99552.02;;;15.42;34.53
39715;BME280;54166;53.172;-6.552;2023-04-07T06:19:51;99553.77;;;15.41;34.54
39715;BME280;54166;53.172;-6.552;2023-04-07T06:22:19;99559.36;;;15.41;34.48
39715;BME280;54166;53.172;-6.552;2023-04-07T06:24:46;99556.81;;;15.72;34.51
39715;BME280;54166;53.172;-6.552;2023-04-07T06:27:15;99555.38;;;15.05;34.49
39715;BME280;54166;53.172;-6.552;2023-04-07T06:29:43;99559.13;;;15.38;34.52
39715;BME280;54166;53.172;-6.552;2023-04-07T06:32:11;99559.43;;;15.39;34.48
39715;BME280;54166;53.172;-6.552;2023-04-07T06:34:39;99559.93;;;15.37;34.47
39715;BME280;54166;53.172;-6.552;2023-04-07T06:37:07;99561.74;;;15.36;34.45
39715;BME280;54166;53.172;-6.552;2023-04-07T06:39:35;99561.66;;;15.36;34.43
39715;BME280;54166;53.172;-6.552;2023-04-07T06:42:03;99561.19;;;15.34;34.43
39715;BME280;54166;53.172;-6.552;2023-04-07T06:44:31;99561.76;;;15.66;34.48
39715;BME280;54166;53.172;-6.552;2023-04-07T06:46:59;99563.57;;;15.32;34.51
39715;BME280;54166;53.172;-6.552;2023-04-07T06:49:26;99565.00;;;15.63;34.50
39715;BME280;54166;53.172;-6.552;2023-04-07T06:51:55;99568.90;;;15.62;34.53
39715;BME280;54166;53.172;-6.552;2023-04-07T06:54:22;99565.94;;;15.29;34.50
39715;BME280;54166;53.172;-6.552;2023-04-07T06:56:51;99565.94;;;15.29;34.49
39715;BME280;54166;53.172;-6.552;2023-04-07T06:59:19;99567.22;;;15.29;34.46
39715;BME280;54166;53.172;-6.552;2023-04-07T07:01:46;99566.47;;;15.62;34.48
39715;BME280;54166;53.172;-6.552;2023-04-07T07:04:14;99564.51;;;15.29;34.54
39715;BME280;54166;53.172;-6.552;2023-04-07T07:06:42;99563.61;;;15.61;34.55
39715;BME280;54166;53.172;-6.552;2023-04-07T07:09:10;99561.00;;;15.26;34.55
39715;BME280;54166;53.172;-6.552;2023-04-07T07:11:38;99563.70;;;15.26;34.56
39715;BME280;54166;53.172;-6.552;2023-04-07T07:14:07;99567.88;;;15.60;34.64
39715;BME280;54166;53.172;-6.552;2023-04-07T07:16:34;99571.95;;;15.60;34.62
39715;BME280;54166;53.172;-6.552;2023-04-07T07:19:02;99573.71;;;15.27;34.66
39715;BME280;54166;53.172;-6.552;2023-04-07T07:21:30;99570.85;;;15.61;34.68
39715;BME280;54166;53.172;-6.552;2023-04-07T07:23:58;99570.98;;;15.62;34.72
39715;BME280;54166;53.172;-6.552;2023-04-07T07:26:26;99571.78;;;15.28;34.75
39715;BME280;54166;53.172;-6.552;2023-04-07T07:28:54;99572.49;;;15.62;34.72
39715;BME280;54166;53.172;-6.552;2023-04-07T07:31:21;99572.80;;;15.63;34.77
39715;BME280;54166;53.172;-6.552;2023-04-07T07:33:49;99572.70;;;15.29;34.79
39715;BME280;54166;53.172;-6.552;2023-04-07T07:36:17;99570.83;;;16.01;34.85
39715;BME280;54166;53.172;-6.552;2023-04-07T07:38:49;99569.91;;;15.61;34.87
39715;BME280;54166;53.172;-6.552;2023-04-07T07:41:17;99571.63;;;15.59;34.91
39715;BME280;54166;53.172;-6.552;2023-04-07T07:43:45;99571.41;;;15.59;34.97
39715;BME280;54166;53.172;-6.552;2023-04-07T07:46:13;99568.74;;;15.26;34.98
39715;BME280;54166;53.172;-6.552;2023-04-07T07:48:40;99568.45;;;15.59;35.02
39715;BME280;54166;53.172;-6.552;2023-04-07T07:51:08;99568.51;;;15.28;35.03
39715;BME280;54166;53.172;-6.552;2023-04-07T07:53:36;99570.05;;;15.28;35.07
39715;BME280;54166;53.172;-6.552;2023-04-07T07:56:04;99568.51;;;15.61;35.08
39715;BME280;54166;53.172;-6.552;2023-04-07T07:58:32;99567.47;;;15.27;35.11
39715;BME280;54166;53.172;-6.552;2023-04-07T08:01:00;99568.08;;;15.61;35.15
39715;BME280;54166;53.172;-6.552;2023-04-07T08:03:27;99566.11;;;15.29;35.18
39715;BME280;54166;53.172;-6.552;2023-04-07T08:05:55;99563.86;;;15.27;35.22
39715;BME280;54166;53.172;-6.552;2023-04-07T08:08:23;99559.24;;;15.61;35.38
39715;BME280;54166;53.172;-6.552;2023-04-07T08:10:51;99558.86;;;15.61;35.50
39715;BME280;54166;53.172;-6.552;2023-04-07T08:13:19;99557.70;;;15.27;35.54
39715;BME280;54166;53.172;-6.552;2023-04-07T08:15:47;99558.95;;;15.62;35.46
39715;BME280;54166;53.172;-6.552;2023-04-07T08:18:15;99560.04;;;15.31;35.34
39715;BME280;54166;53.172;-6.552;2023-04-07T08:20:43;99561.97;;;15.63;35.31
39715;BME280;54166;53.172;-6.552;2023-04-07T08:23:10;99560.50;;;15.29;35.38
39715;BME280;54166;53.172;-6.552;2023-04-07T08:25:39;99558.99;;;15.64;35.40
39715;BME280;54166;53.172;-6.552;2023-04-07T08:28:07;99561.09;;;15.29;35.42
39715;BME280;54166;53.172;-6.552;2023-04-07T08:30:35;99560.80;;;16.03;35.38
39715;BME280;54166;53.172;-6.552;2023-04-07T08:33:04;99559.94;;;15.30;35.41
39715;BME280;54166;53.172;-6.552;2023-04-07T08:35:32;99561.44;;;15.31;35.41
39715;BME280;54166;53.172;-6.552;2023-04-07T08:38:00;99560.85;;;15.31;35.40
39715;BME280;54166;53.172;-6.552;2023-04-07T08:40:28;99559.81;;;15.64;35.41
39715;BME280;54166;53.172;-6.552;2023-04-07T08:42:56;99561.75;;;15.66;35.41
39715;BME280;54166;53.172;-6.552;2023-04-07T08:45:27;99560.08;;;15.33;35.44
39715;BME280;54166;53.172;-6.552;2023-04-07T08:47:56;99560.17;;;15.34;35.42
39715;BME280;54166;53.172;-6.552;2023-04-07T08:50:26;99559.41;;;15.66;35.42
39715;BME280;54166;53.172;-6.552;2023-04-07T08:52:55;99558.71;;;15.66;35.50
39715;BME280;54166;53.172;-6.552;2023-04-07T08:55:23;99558.71;;;15.66;35.51
39715;BME280;54166;53.172;-6.552;2023-04-07T08:57:52;99561.41;;;15.66;35.49
39715;BME280;54166;53.172;-6.552;2023-04-07T09:00:26;99562.40;;;15.65;35.54
39715;BME280;54166;53.172;-6.552;2023-04-07T09:02:55;99562.15;;;15.64;35.59
39715;BME280;54166;53.172;-6.552;2023-04-07T09:05:23;99561.14;;;15.65;35.67
39715;BME280;54166;53.172;-6.552;2023-04-07T09:07:50;99562.09;;;15.64;35.64
39715;BME280;54166;53.172;-6.552;2023-04-07T09:10:18;99565.25;;;15.65;35.72
39715;BME280;54166;53.172;-6.552;2023-04-07T09:12:46;99566.23;;;15.32;35.61
39715;BME280;54166;53.172;-6.552;2023-04-07T09:15:14;99561.42;;;15.33;35.66
39715;BME280;54166;53.172;-6.552;2023-04-07T09:17:42;99561.82;;;15.32;35.70
39715;BME280;54166;53.172;-6.552;2023-04-07T09:20:10;99563.54;;;15.66;35.69
39715;BME280;54166;53.172;-6.552;2023-04-07T09:22:41;99567.49;;;15.35;35.72
39715;BME280;54166;53.172;-6.552;2023-04-07T09:25:12;99568.74;;;15.67;35.73
39715;BME280;54166;53.172;-6.552;2023-04-07T09:27:40;99559.78;;;15.33;35.74
39715;BME280;54166;53.172;-6.552;2023-04-07T09:30:12;99558.01;;;15.68;35.79
39715;BME280;54166;53.172;-6.552;2023-04-07T09:32:40;99562.69;;;15.66;35.85
39715;BME280;54166;53.172;-6.552;2023-04-07T09:35:09;99564.42;;;15.33;35.83
39715;BME280;54166;53.172;-6.552;2023-04-07T09:37:36;99562.56;;;15.34;35.81
39715;BME280;54166;53.172;-6.552;2023-04-07T09:40:05;99560.83;;;15.67;35.75
39715;BME280;54166;53.172;-6.552;2023-04-07T09:42:33;99559.44;;;15.67;35.78
39715;BME280;54166;53.172;-6.552;2023-04-07T09:45:01;99561.79;;;15.65;35.82
39715;BME280;54166;53.172;-6.552;2023-04-07T09:47:31;99558.66;;;15.32;35.75
39715;BME280;54166;53.172;-6.552;2023-04-07T09:49:59;99558.18;;;15.31;35.82
39715;BME280;54166;53.172;-6.552;2023-04-07T09:52:48;99557.74;;;15.66;35.71
39715;BME280;54166;53.172;-6.552;2023-04-07T09:55:18;99562.62;;;15.29;35.83
39715;BME280;54166;53.172;-6.552;2023-04-07T09:57:48;99560.98;;;15.63;35.67
39715;BME280;54166;53.172;-6.552;2023-04-07T10:00:17;99560.85;;;15.67;36.20
39715;BME280;54166;53.172;-6.552;2023-04-07T10:02:46;99554.06;;;15.36;36.26
39715;BME280;54166;53.172;-6.552;2023-04-07T10:05:14;99555.42;;;15.70;36.25
39715;BME280;54166;53.172;-6.552;2023-04-07T10:07:42;99552.70;;;15.35;36.48
39715;BME280;54166;53.172;-6.552;2023-04-07T10:10:10;99552.84;;;15.39;36.56
39715;BME280;54166;53.172;-6.552;2023-04-07T10:12:39;99557.38;;;15.38;36.64
39715;BME280;54166;53.172;-6.552;2023-04-07T10:15:12;99551.58;;;15.73;36.63
39715;BME280;54166;53.172;-6.552;2023-04-07T10:17:42;99552.91;;;15.40;36.68
39715;BME280;54166;53.172;-6.552;2023-04-07T10:20:12;99553.29;;;15.74;36.74
39715;BME280;54166;53.172;-6.552;2023-04-07T10:22:42;99551.69;;;15.42;36.75
39715;BME280;54166;53.172;-6.552;2023-04-07T10:25:13;99551.51;;;15.43;36.95
39715;BME280;54166;53.172;-6.552;2023-04-07T10:27:46;99548.21;;;15.77;36.90
39715;BME280;54166;53.172;-6.552;2023-04-07T10:30:19;99545.51;;;15.80;37.06
39715;BME280;54166;53.172;-6.552;2023-04-07T10:32:49;99549.20;;;15.81;37.00
39715;BME280;54166;53.172;-6.552;2023-04-07T10:35:17;99550.10;;;15.50;37.02
39715;BME280;54166;53.172;-6.552;2023-04-07T10:38:18;99549.43;;;15.52;37.10
39715;BME280;54166;53.172;-6.552;2023-04-07T10:40:46;99552.40;;;15.49;37.18
39715;BME280;54166;53.172;-6.552;2023-04-07T10:43:36;99551.04;;;15.55;37.19
39715;BME280;54166;53.172;-6.552;2023-04-07T10:46:04;99550.85;;;15.24;37.32
39715;BME280;54166;53.172;-6.552;2023-04-07T10:48:32;99549.83;;;15.65;37.33
39715;BME280;54166;53.172;-6.552;2023-04-07T10:51:16;99547.71;;;16.01;37.30
39715;BME280;54166;53.172;-6.552;2023-04-07T10:54:19;99547.22;;;16.71;37.35
39715;BME280;54166;53.172;-6.552;2023-04-07T10:57:20;99547.92;;;16.69;37.39
39715;BME280;54166;53.172;-6.552;2023-04-07T11:00:22;99547.01;;;16.69;37.45
39715;BME280;54166;53.172;-6.552;2023-04-07T11:02:49;99553.57;;;15.63;37.39
39715;BME280;54166;53.172;-6.552;2023-04-07T11:05:21;99549.37;;;15.70;37.32
39715;BME280;54166;53.172;-6.552;2023-04-07T11:07:52;99546.86;;;15.73;37.28
39715;BME280;54166;53.172;-6.552;2023-04-07T11:10:25;99551.46;;;16.10;37.23
39715;BME280;54166;53.172;-6.552;2023-04-07T11:13:06;99547.04;;;15.79;37.18
39715;BME280;54166;53.172;-6.552;2023-04-07T11:15:41;99548.25;;;15.79;37.14
39715;BME280;54166;53.172;-6.552;2023-04-07T11:18:24;99546.62;;;15.81;37.09
39715;BME280;54166;53.172;-6.552;2023-04-07T11:21:02;99545.55;;;15.81;37.12
39715;BME280;54166;53.172;-6.552;2023-04-07T11:23:44;99542.59;;;15.85;37.10
39715;BME280;54166;53.172;-6.552;2023-04-07T11:26:19;99545.16;;;16.18;37.07
39715;BME280;54166;53.172;-6.552;2023-04-07T11:28:54;99549.61;;;15.86;37.05
39715;BME280;54166;53.172;-6.552;2023-04-07T11:31:30;99551.04;;;15.89;37.02
39715;BME280;54166;53.172;-6.552;2023-04-07T11:34:04;99549.92;;;15.92;36.99
39715;BME280;54166;53.172;-6.552;2023-04-07T11:36:41;99547.06;;;15.94;36.99
39715;BME280;54166;53.172;-6.552;2023-04-07T11:39:22;99548.50;;;15.94;37.00
39715;BME280;54166;53.172;-6.552;2023-04-07T11:41:54;99550.18;;;15.94;37.02
39715;BME280;54166;53.172;-6.552;2023-04-07T11:44:22;99549.44;;;15.96;37.02
39715;BME280;54166;53.172;-6.552;2023-04-07T11:46:55;99552.36;;;15.97;37.02
39715;BME280;54166;53.172;-6.552;2023-04-07T11:49:26;99549.84;;;15.99;36.95
39715;BME280;54166;53.172;-6.552;2023-04-07T11:52:04;99553.20;;;16.01;36.79
39715;BME280;54166;53.172;-6.552;2023-04-07T11:54:40;99547.08;;;16.03;36.72
39715;BME280;54166;53.172;-6.552;2023-04-07T11:57:08;99549.75;;;16.04;36.60
39715;BME280;54166;53.172;-6.552;2023-04-07T11:59:36;99550.76;;;16.07;36.59
39715;BME280;54166;53.172;-6.552;2023-04-07T12:02:04;99547.58;;;16.09;36.58
39715;BME280;54166;53.172;-6.552;2023-04-07T12:04:32;99552.42;;;16.09;36.70
39715;BME280;54166;53.172;-6.552;2023-04-07T12:07:07;99553.68;;;16.08;36.74
39715;BME280;54166;53.172;-6.552;2023-04-07T12:09:36;99555.01;;;16.09;36.84
39715;BME280;54166;53.172;-6.552;2023-04-07T12:12:05;99555.65;;;16.09;36.81
39715;BME280;54166;53.172;-6.552;2023-04-07T12:14:42;99558.82;;;16.10;36.60
39715;BME280;54166;53.172;-6.552;2023-04-07T12:17:25;99557.61;;;16.09;36.71
39715;BME280;54166;53.172;-6.552;2023-04-07T12:19:53;99557.50;;;16.09;36.73
39715;BME280;54166;53.172;-6.552;2023-04-07T12:22:25;99556.80;;;16.15;36.55
39715;BME280;54166;53.172;-6.552;2023-04-07T12:24:53;99555.65;;;15.82;36.64
39715;BME280;54166;53.172;-6.552;2023-04-07T12:27:21;99552.58;;;16.20;36.44
39715;BME280;54166;53.172;-6.552;2023-04-07T12:29:49;99552.47;;;16.25;36.43
39715;BME280;54166;53.172;-6.552;2023-04-07T12:32:17;99552.10;;;16.24;36.49
39715;BME280;54166;53.172;-6.552;2023-04-07T12:34:44;99555.39;;;16.24;36.51
39715;BME280;54166;53.172;-6.552;2023-04-07T12:37:13;99549.59;;;16.26;36.51
39715;BME280;54166;53.172;-6.552;2023-04-07T12:39:41;99545.61;;;16.25;36.43
39715;BME280;54166;53.172;-6.552;2023-04-07T12:42:09;99548.49;;;16.29;35.92
39715;BME280;54166;53.172;-6.552;2023-04-07T12:44:37;99543.21;;;15.99;35.82
39715;BME280;54166;53.172;-6.552;2023-04-07T12:47:07;99541.05;;;15.99;36.03
39715;BME280;54166;53.172;-6.552;2023-04-07T12:49:35;99540.49;;;16.32;36.22
39715;BME280;54166;53.172;-6.552;2023-04-07T12:52:04;99542.61;;;16.00;36.31
39715;BME280;54166;53.172;-6.552;2023-04-07T12:54:31;99541.42;;;16.34;36.41
39715;BME280;54166;53.172;-6.552;2023-04-07T12:57:03;99539.25;;;16.36;36.50
39715;BME280;54166;53.172;-6.552;2023-04-07T12:59:31;99539.82;;;16.37;36.58
39715;BME280;54166;53.172;-6.552;2023-04-07T13:01:59;99539.76;;;16.37;36.62
39715;BME280;54166;53.172;-6.552;2023-04-07T13:04:31;99544.95;;;16.37;36.67